Time;durP1;ratioP1;P1;durP2;ratioP2;P2;SDS_P1;SDS_P2;PMS_P1;PMS_P2;Temp;Humidity;BMP_temperature;BMP_pressure;BME280_temperature;BME280_humidity;BME280_pressure;Samples;Min_cycle;Max_cycle;Signal;HPM_P1;HPM_P2
2023/02/19 00:02:20;;;;;;;41.90;5.45;;;;;;;8.84;100.00;101815.50;5020288;28;20107;-44
2023/02/19 00:04:45;;;;;;;42.20;4.95;;;;;;;8.85;100.00;101814.50;5022799;28;20112;-47
2023/02/19 00:07:11;;;;;;;30.23;4.35;;;;;;;8.85;100.00;101820.72;5029066;28;20061;-45
2023/02/19 00:09:36;;;;;;;30.73;4.20;;;;;;;8.88;100.00;101816.91;5016172;28;20022;-46
2023/02/19 00:12:01;;;;;;;20.65;4.60;;;;;;;8.85;100.00;101815.34;5012434;28;20060;-45
2023/02/19 00:14:27;;;;;;;26.23;4.55;;;;;;;8.85;100.00;101814.50;5023734;28;20455;-44
2023/02/19 00:16:52;;;;;;;32.33;4.38;;;;;;;8.84;100.00;101816.31;5020998;28;20077;-45
2023/02/19 00:19:19;;;;;;;32.63;5.28;;;;;;;8.83;100.00;101811.97;5021522;28;20471;-44
2023/02/19 00:21:44;;;;;;;34.95;4.60;;;;;;;8.82;100.00;101810.28;5025672;28;20044;-45
2023/02/19 00:24:11;;;;;;;41.88;4.78;;;;;;;8.82;100.00;101810.28;5029568;28;20057;-42
2023/02/19 00:26:38;;;;;;;42.20;5.45;;;;;;;8.83;100.00;101806.59;5016812;28;20034;-43
2023/02/19 00:29:04;;;;;;;35.28;6.03;;;;;;;8.80;100.00;101806.88;5011818;28;20130;-43
2023/02/19 00:31:32;;;;;;;42.10;6.07;;;;;;;8.81;100.00;101800.53;5021457;28;20121;-46
2023/02/19 00:33:57;;;;;;;;;;;;;;;8.79;100.00;101806.06;5012209;28;20042;-46
2023/02/19 00:36:24;;;;;;;28.23;3.70;;;;;;;8.80;100.00;101812.25;5009890;28;19917;-42
2023/02/19 00:38:49;;;;;;;24.63;4.10;;;;;;;8.81;100.00;101815.78;5014006;28;20493;-44
2023/02/19 00:41:19;;;;;;;45.45;5.85;;;;;;;8.82;100.00;101821.03;5028401;28;20049;-45
2023/02/19 00:44:00;;;;;;;32.95;5.25;;;;;;;8.83;100.00;101822.69;5019765;28;20333;-44
2023/02/19 00:46:27;;;;;;;34.85;5.70;;;;;;;8.86;100.00;101819.72;5023889;28;20033;-47
2023/02/19 00:48:53;;;;;;;27.58;5.10;;;;;;;8.90;100.00;101831.00;5028223;28;20030;-45
2023/02/19 00:51:20;;;;;;;35.22;4.90;;;;;;;8.90;100.00;101825.63;5022068;28;20033;-44
2023/02/19 00:53:45;;;;;;;23.08;4.25;;;;;;;8.92;100.00;101835.22;5033502;28;20037;-44
2023/02/19 00:56:11;;;;;;;32.03;4.15;;;;;;;8.95;100.00;101831.41;5011698;28;20473;-44
2023/02/19 00:58:37;;;;;;;30.98;4.40;;;;;;;9.01;100.00;101830.84;4999281;28;20030;-43
2023/02/19 01:01:04;;;;;;;35.83;4.10;;;;;;;9.04;100.00;101830.53;5027482;28;20022;-44
2023/02/19 01:03:29;;;;;;;30.35;4.15;;;;;;;9.08;100.00;101836.44;5032342;28;20052;-45
2023/02/19 01:05:55;;;;;;;28.60;3.88;;;;;;;9.10;100.00;101834.47;5032711;28;20021;-45
2023/02/19 01:08:20;;;;;;;18.95;3.63;;;;;;;9.10;100.00;101829.09;5033147;28;20033;-44
2023/02/19 01:10:46;;;;;;;27.05;3.88;;;;;;;9.10;100.00;101837.16;5033294;28;20034;-43
2023/02/19 01:13:11;;;;;;;22.73;4.55;;;;;;;9.10;100.00;101829.09;5021133;28;20377;-44
2023/02/19 01:15:37;;;;;;;22.25;4.30;;;;;;;9.07;100.00;101829.41;5013916;28;20389;-44
2023/02/19 01:18:02;;;;;;;39.67;4.38;;;;;;;9.09;100.00;101832.78;5022416;28;20314;-45
2023/02/19 01:20:28;;;;;;;37.47;4.68;;;;;;;9.09;100.00;101827.41;5033631;28;20182;-44
2023/02/19 01:22:53;;;;;;;29.23;4.05;;;;;;;9.14;100.00;101835.88;5021582;28;20608;-45
2023/02/19 01:25:19;;;;;;;27.90;3.92;;;;;;;9.10;100.00;101840.69;5018597;28;20041;-43
2023/02/19 01:27:44;;;;;;;42.00;4.65;;;;;;;9.07;100.00;101829.41;5023107;28;20040;-44
2023/02/19 01:30:10;;;;;;;22.23;4.15;;;;;;;9.07;100.00;101830.22;5032898;28;20047;-43
2023/02/19 01:32:35;;;;;;;31.02;4.60;;;;;;;9.06;100.00;101830.38;5017586;28;20030;-45
2023/02/19 01:35:01;;;;;;;29.70;4.53;;;;;;;9.07;100.00;101840.13;5030872;28;20095;-45
2023/02/19 01:37:26;;;;;;;38.72;4.53;;;;;;;9.05;100.00;101832.22;5020702;28;20030;-44
2023/02/19 01:39:52;;;;;;;41.42;5.55;;;;;;;9.05;100.00;101834.06;5040810;28;20459;-44
2023/02/19 01:42:17;;;;;;;32.10;4.45;;;;;;;9.05;100.00;101839.44;5026928;28;20118;-45
2023/02/19 01:44:45;;;;;;;24.75;4.20;;;;;;;9.03;100.00;101834.22;5013738;28;20025;-44
2023/02/19 01:47:11;;;;;;;22.10;3.63;;;;;;;9.02;100.00;101848.63;5027001;28;20060;-45
2023/02/19 01:49:52;;;;;;;37.92;3.97;;;;;;;9.02;100.00;101844.09;5018472;28;20103;-45
2023/02/19 01:52:26;;;;;;;30.83;4.50;;;;;;;9.04;100.00;101841.28;5021112;28;20113;-45
2023/02/19 01:54:52;;;;;;;34.20;3.65;;;;;;;9.04;100.00;101845.81;5021974;28;20021;-45
2023/02/19 01:57:24;;;;;;;33.63;5.20;;;;;;;9.06;100.00;101849.16;5033821;28;20545;-45
2023/02/19 01:59:54;;;;;;;23.38;3.95;;;;;;;9.10;100.00;101853.25;5027923;28;20083;-43
2023/02/19 02:02:20;;;;;;;29.27;3.97;;;;;;;9.06;100.00;101850.03;5030240;28;20108;-44
2023/02/19 02:04:46;;;;;;;33.00;4.65;;;;;;;9.07;100.00;101861.63;5022396;28;20045;-44
2023/02/19 02:12:40;;;;;;;25.58;3.05;;;;;;;9.09;100.00;101856.97;5033248;28;20124;-44
2023/02/19 02:15:06;;;;;;;34.58;6.03;;;;;;;9.10;100.00;101858.63;5019113;28;20033;-44
2023/02/19 02:17:59;;;;;;;34.42;4.43;;;;;;;9.10;100.00;101856.78;5015007;28;20505;-45
2023/02/19 02:20:43;;;;;;;29.17;3.83;;;;;;;9.12;100.00;101856.66;5025975;28;20053;-43
2023/02/19 02:23:40;;;;;;;27.88;3.92;;;;;;;9.10;100.00;101861.31;5023873;28;20436;-44
2023/02/19 02:26:19;;;;;;;34.35;3.90;;;;;;;9.13;100.00;101855.66;5033471;28;20413;-43
2023/02/19 02:29:08;;;;;;;21.02;3.55;;;;;;;9.12;100.00;101864.72;5022684;28;20040;-43
2023/02/19 02:31:40;;;;;;;34.35;4.07;;;;;;;9.13;100.00;101856.50;5038510;28;20022;-45
2023/02/19 02:34:11;;;;;;;29.73;3.50;;;;;;;9.12;100.00;101853.97;4994552;28;20045;-43
2023/02/19 02:36:39;;;;;;;28.70;4.20;;;;;;;9.10;100.00;101858.63;5014462;28;20041;-44
2023/02/19 02:39:07;;;;;;;25.85;3.88;;;;;;;9.09;100.00;101854.28;5030204;28;20119;-45
2023/02/19 02:41:32;;;;;;;37.60;4.00;;;;;;;9.08;100.00;101866.81;5005465;28;20026;-43
2023/02/19 02:43:58;;;;;;;32.85;5.38;;;;;;;9.07;100.00;101861.63;5012308;28;20042;-45
2023/02/19 02:46:27;;;;;;;38.88;5.05;;;;;;;9.05;100.00;101871.66;5038899;28;20052;-44
2023/02/19 02:48:57;;;;;;;31.45;4.40;;;;;;;9.04;100.00;101876.19;4999761;28;20436;-44
2023/02/19 02:51:26;;;;;;;31.45;4.25;;;;;;;9.01;100.00;101879.16;5026232;28;20456;-43
2023/02/19 02:56:47;;;;;;;40.03;4.68;;;;;;;8.91;100.00;101887.25;5032324;28;20400;-43
2023/02/19 02:59:17;;;;;;;34.00;4.53;;;;;;;8.86;100.00;101891.34;5026115;28;20021;-44
2023/02/19 03:02:17;;;;;;;27.85;3.72;;;;;;;8.82;100.00;101898.88;5022751;28;20154;-44
2023/02/19 03:07:59;;;;;;;32.55;4.03;;;;;;;8.78;100.00;101900.97;5026207;28;20557;-43
2023/02/19 03:10:29;;;;;;;38.90;4.70;;;;;;;8.75;100.00;101895.91;5010653;28;20060;-43
2023/02/19 03:21:14;;;;;;;39.30;4.35;;;;;;;8.78;100.00;101916.22;5019250;28;20052;-46
2023/02/19 03:26:25;;;;;;;35.22;3.70;;;;;;;8.83;100.00;101908.59;5012643;28;20290;-44
2023/02/19 03:31:37;;;;;;;27.65;3.85;;;;;;;8.77;100.00;101915.41;5018195;28;20036;-43
2023/02/19 03:34:09;;;;;;;30.70;3.55;;;;;;;8.81;100.00;101915.09;5009868;28;20042;-42
2023/02/19 03:36:41;;;;;;;30.13;4.35;;;;;;;8.77;100.00;101919.91;5009902;28;20034;-44
2023/02/19 03:39:07;;;;;;;34.80;3.67;;;;;;;8.74;100.00;101921.06;5009894;28;20025;-44
2023/02/19 03:41:54;;;;;;;35.95;4.55;;;;;;;8.73;100.00;101923.88;5026605;28;20029;-45
2023/02/19 03:44:49;;;;;;;42.35;4.22;;;;;;;8.72;100.00;101932.94;5029544;28;20467;-43
2023/02/19 03:47:22;;;;;;;29.75;5.28;;;;;;;8.72;100.00;101936.44;5025167;28;20492;-43
2023/02/19 03:49:54;;;;;;;31.63;3.42;;;;;;;8.71;100.00;101931.22;5026961;28;20476;-43
2023/02/19 03:52:23;;;;;;;32.20;4.00;;;;;;;8.71;100.00;101937.41;5011144;28;20745;-44
2023/02/19 03:55:09;;;;;;;30.13;4.05;;;;;;;8.70;100.00;101941.09;5011527;28;20030;-43
2023/02/19 03:57:46;;;;;;;30.17;3.88;;;;;;;8.72;100.00;101938.28;5019051;28;20476;-42
2023/02/19 04:00:17;;;;;;;30.17;4.10;;;;;;;8.72;100.00;101941.81;5024252;28;20093;-42
2023/02/19 04:02:48;;;;;;;32.13;3.40;;;;;;;8.73;100.00;101942.66;5027083;28;20507;-43
2023/02/19 04:05:16;;;;;;;30.30;3.60;;;;;;;8.73;100.00;101950.72;5029285;28;20033;-43
2023/02/19 04:07:45;;;;;;;32.45;3.38;;;;;;;8.69;100.00;101950.16;5028428;28;20095;-40
2023/02/19 04:10:12;;;;;;;26.17;3.70;;;;;;;8.69;100.00;101943.91;5013292;28;20488;-40
2023/02/19 04:12:39;;;;;;;26.30;3.88;;;;;;;8.65;100.00;101954.09;5009517;28;20109;-40
2023/02/19 04:15:19;;;;;;;36.78;4.05;;;;;;;8.65;100.00;101964.00;5022101;28;20497;-43
2023/02/19 04:17:48;;;;;;;27.80;3.22;;;;;;;8.64;100.00;101960.47;5020421;28;20030;-41
2023/02/19 04:20:14;;;;;;;35.75;4.05;;;;;;;8.60;100.00;101971.63;5029824;28;20029;-41
2023/02/19 04:22:40;;;;;;;34.05;4.00;;;;;;;8.57;100.00;101965.53;5028643;28;20365;-41
2023/02/19 04:25:06;;;;;;;29.05;3.67;;;;;;;8.53;100.00;101968.63;5028601;28;20057;-42
2023/02/19 04:27:35;;;;;;;38.72;3.72;;;;;;;8.54;100.00;101973.03;5028618;28;20025;-42
2023/02/19 04:30:01;;;;;;;33.25;4.25;;;;;;;8.53;100.00;101985.63;5010735;28;20041;-42
2023/02/19 04:32:26;;;;;;;35.53;4.22;;;;;;;8.56;100.00;101982.66;5030039;28;20045;-43
2023/02/19 04:34:51;;;;;;;32.90;4.70;;;;;;;8.57;100.00;102000.44;5027482;28;20049;-42
2023/02/19 04:37:17;;;;;;;36.92;4.22;;;;;;;8.62;100.00;102001.84;5029834;28;20030;-43
2023/02/19 04:39:42;;;;;;;33.63;4.18;;;;;;;8.63;100.00;101998.16;5028127;28;20022;-43
2023/02/19 04:42:09;;;;;;;28.30;3.92;;;;;;;8.64;100.00;102002.56;5026237;28;20104;-43
2023/02/19 04:44:34;;;;;;;36.93;3.77;;;;;;;8.62;100.00;102013.44;5027176;28;20029;-44
2023/02/19 04:47:00;;;;;;;34.25;4.13;;;;;;;8.62;100.00;102009.91;5029658;28;20091;-43
2023/02/19 04:49:25;;;;;;;45.70;4.32;;;;;;;8.64;100.00;102015.97;5029973;28;20048;-42
2023/02/19 04:51:51;;;;;;;37.17;3.95;;;;;;;8.60;100.00;102011.88;5028853;28;20401;-44
2023/02/19 04:54:16;;;;;;;35.60;3.53;;;;;;;8.60;100.00;102014.56;5029620;28;20036;-44
2023/02/19 04:56:41;;;;;;;33.78;4.35;;;;;;;8.60;100.00;102022.59;5014895;28;20026;-43
2023/02/19 04:59:07;;;;;;;31.20;3.85;;;;;;;8.54;100.00;102027.53;5010076;28;20021;-45
2023/02/19 05:01:32;;;;;;;36.63;3.67;;;;;;;8.55;100.00;102031.06;5012208;28;20187;-44
2023/02/19 05:03:57;;;;;;;35.28;4.30;;;;;;;8.52;100.00;102029.50;5010038;28;20065;-45
2023/02/19 05:06:23;;;;;;;16.75;3.22;;;;;;;8.57;100.00;102038.00;5020667;28;20022;-45
2023/02/19 05:08:48;;;;;;;19.92;3.75;;;;;;;8.56;100.00;102036.31;5027956;28;20056;-43
2023/02/19 05:11:13;;;;;;;28.77;3.85;;;;;;;8.49;100.00;102051.25;5017997;28;20121;-44
2023/02/19 05:13:39;;;;;;;23.40;3.53;;;;;;;8.46;100.00;102056.91;5018153;28;20048;-42
2023/02/19 05:16:14;;;;;;;21.00;3.95;;;;;;;8.42;100.00;102055.47;5021626;28;20033;-42
2023/02/19 05:18:41;;;;;;;23.23;3.92;;;;;;;8.42;100.00;102060.84;5019298;28;20021;-42
2023/02/19 05:21:06;;;;;;;27.98;3.80;;;;;;;8.41;100.00;102069.03;5017219;28;20065;-42
2023/02/19 05:23:31;;;;;;;27.20;4.15;;;;;;;8.40;100.00;102083.44;5011468;28;20025;-43
2023/02/19 05:25:57;;;;;;;24.35;4.05;;;;;;;8.37;100.00;102079.16;5019306;28;20107;-43
2023/02/19 05:28:27;;;;;;;26.55;3.38;;;;;;;8.37;100.00;102079.16;5025885;28;20114;-43
2023/02/19 05:30:53;;;;;;;25.02;4.20;;;;;;;8.34;100.00;102079.44;5031299;28;20098;-44
2023/02/19 05:33:21;;;;;;;19.58;3.20;;;;;;;8.36;100.00;102077.47;5021325;28;20473;-44
2023/02/19 05:35:48;;;;;;;28.55;5.50;;;;;;;8.33;100.00;102073.22;5020669;28;20093;-42
2023/02/19 05:38:15;;;;;;;23.98;4.28;;;;;;;8.30;100.00;102073.50;5022973;28;20124;-43
2023/02/19 05:40:41;;;;;;;20.55;4.47;;;;;;;8.29;100.00;102082.53;5026633;28;20025;-42
2023/02/19 05:43:07;;;;;;;28.50;4.70;;;;;;;8.30;100.00;102078.03;5017416;28;20042;-40
2023/02/19 05:45:33;;;;;;;21.55;4.15;;;;;;;8.25;100.00;102074.91;5019884;28;21203;-43
2023/02/19 05:47:59;;;;;;;22.08;4.00;;;;;;;8.22;100.00;102076.03;5023449;28;20042;-43
2023/02/19 05:50:24;;;;;;;40.30;4.97;;;;;;;8.21;100.00;102079.66;5012284;28;20135;-41
2023/02/19 05:52:50;;;;;;;25.13;4.53;;;;;;;8.19;100.00;102080.78;5011979;28;20053;-43
2023/02/19 05:55:15;;;;;;;32.40;4.85;;;;;;;8.17;100.00;102088.13;5023575;28;20025;-43
2023/02/19 05:57:45;;;;;;;25.48;4.60;;;;;;;8.14;100.00;102092.78;5025116;28;20037;-43
2023/02/19 06:00:16;;;;;;;20.50;4.03;;;;;;;8.17;100.00;102098.88;5021538;28;20030;-43
2023/02/19 06:02:42;;;;;;;37.90;4.63;;;;;;;8.18;100.00;102103.22;5018421;28;20052;-43
2023/02/19 06:05:08;;;;;;;34.30;4.82;;;;;;;8.20;100.00;102098.59;5014026;28;20481;-44
2023/02/19 06:07:33;;;;;;;31.80;5.00;;;;;;;8.19;100.00;102107.59;5017797;28;20509;-43
2023/02/19 06:09:58;;;;;;;31.95;4.07;;;;;;;8.18;100.00;102111.28;5023375;28;20424;-44
2023/02/19 06:12:24;;;;;;;22.73;3.97;;;;;;;8.20;100.00;102114.69;5010865;28;20065;-44
2023/02/19 06:14:49;;;;;;;29.15;4.43;;;;;;;8.17;100.00;102113.13;5011052;28;20038;-43
2023/02/19 06:17:15;;;;;;;24.63;3.90;;;;;;;8.21;100.00;102116.38;5026519;28;20037;-45
2023/02/19 06:19:40;;;;;;;30.42;4.63;;;;;;;8.19;100.00;102123.69;5030636;28;20393;-44
2023/02/19 06:22:06;;;;;;;20.85;3.60;;;;;;;8.22;100.00;102120.78;5029071;28;20030;-44
2023/02/19 06:24:32;;;;;;;22.35;3.30;;;;;;;8.19;100.00;102118.31;5026235;28;20524;-42
2023/02/19 06:26:57;;;;;;;25.52;3.50;;;;;;;8.23;100.00;102130.50;5012086;28;20898;-44
2023/02/19 06:29:23;;;;;;;28.50;4.13;;;;;;;8.23;100.00;102117.09;5024363;28;20140;-44
2023/02/19 06:31:48;;;;;;;24.08;4.35;;;;;;;8.21;100.00;102127.09;5024273;28;20036;-45
2023/02/19 06:34:14;;;;;;;17.13;4.10;;;;;;;8.22;100.00;102124.28;5024536;28;20445;-44
2023/02/19 06:36:39;;;;;;;23.05;4.05;;;;;;;8.24;100.00;102122.34;5023700;28;20383;-44
2023/02/19 06:39:05;;;;;;;22.17;3.80;;;;;;;8.28;100.00;102118.38;5023889;28;20112;-45
2023/02/19 06:41:30;;;;;;;21.92;3.70;;;;;;;8.27;100.00;102131.94;5024920;28;20103;-45
2023/02/19 06:43:57;;;;;;;22.38;3.60;;;;;;;8.26;100.00;102130.22;5025124;28;20072;-45
2023/02/19 06:46:22;;;;;;;31.40;4.45;;;;;;;8.26;100.00;102124.84;5005450;28;20159;-45
2023/02/19 06:48:48;;;;;;;27.63;4.10;;;;;;;8.26;100.00;102125.69;5024441;28;21177;-45
2023/02/19 06:51:17;;;;;;;24.15;3.75;;;;;;;8.28;100.00;102133.63;5023082;28;20083;-44
2023/02/19 06:53:42;;;;;;;30.05;3.85;;;;;;;8.28;100.00;102128.25;5017796;28;20080;-44
2023/02/19 06:56:38;;;;;;;24.52;3.45;;;;;;;8.26;100.00;102128.38;5018633;28;20029;-45
2023/02/19 06:59:11;;;;;;;17.55;3.65;;;;;;;8.28;100.00;102134.47;5019599;28;20040;-43
2023/02/19 07:01:37;;;;;;;23.85;3.65;;;;;;;8.28;100.00;102155.09;5021643;28;20607;-45
2023/02/19 07:04:04;;;;;;;27.23;4.50;;;;;;;8.31;100.00;102152.97;5023964;28;20084;-44
2023/02/19 07:06:29;;;;;;;22.00;3.35;;;;;;;8.30;100.00;102158.50;5017856;28;20034;-45
2023/02/19 07:08:56;;;;;;;27.58;3.85;;;;;;;8.28;100.00;102165.81;5016853;28;20026;-45
2023/02/19 07:11:21;;;;;;;26.33;3.55;;;;;;;8.27;100.00;102169.50;5018398;28;20041;-46
2023/02/19 07:13:47;;;;;;;14.90;2.90;;;;;;;8.24;100.00;102167.06;5018653;28;20043;-45
2023/02/19 07:16:13;;;;;;;28.13;5.03;;;;;;;8.23;100.00;102173.41;5022258;28;20408;-43
2023/02/19 07:18:39;;;;;;;20.50;3.72;;;;;;;8.23;100.00;102184.13;5018523;28;20124;-42
2023/02/19 07:21:09;;;;;;;25.88;4.28;;;;;;;8.21;100.00;102202.19;5020967;28;20040;-43
2023/02/19 07:23:35;;;;;;;27.58;4.30;;;;;;;8.19;100.00;102201.47;5018555;28;20033;-45
2023/02/19 07:26:00;;;;;;;31.30;4.68;;;;;;;8.21;100.00;102202.19;5017146;28;20021;-43
2023/02/19 07:28:26;;;;;;;26.13;4.68;;;;;;;8.17;100.00;102216.88;5020857;28;20033;-42
2023/02/19 07:30:52;;;;;;;22.42;4.13;;;;;;;8.12;100.00;102212.72;5020607;28;20575;-42
2023/02/19 07:33:17;;;;;;;25.55;4.00;;;;;;;8.15;100.00;102230.38;5023170;28;20041;-43
2023/02/19 07:35:49;;;;;;;22.60;4.10;;;;;;;8.16;100.00;102236.59;5023176;28;20041;-45
2023/02/19 07:38:19;;;;;;;19.27;3.63;;;;;;;8.11;100.00;102232.50;5023371;28;20033;-42
2023/02/19 07:40:55;;;;;;;21.92;4.20;;;;;;;8.12;100.00;102236.88;5020241;28;20042;-44
2023/02/19 07:43:22;;;;;;;28.95;4.18;;;;;;;8.12;100.00;102239.53;5020986;28;20033;-44
2023/02/19 07:45:47;;;;;;;20.17;3.50;;;;;;;8.13;100.00;102238.56;5022777;28;20396;-44
2023/02/19 07:48:12;;;;;;;26.10;5.57;;;;;;;8.12;100.00;102252.13;5023429;28;20017;-44
2023/02/19 07:50:38;;;;;;;29.02;4.00;;;;;;;8.14;100.00;102260.88;5019675;28;20040;-44
2023/02/19 07:53:03;;;;;;;24.92;4.97;;;;;;;8.13;100.00;102265.38;5022969;28;20031;-45
2023/02/19 07:55:30;;;;;;;23.45;3.65;;;;;;;8.16;100.00;102274.13;5022508;28;21578;-47
2023/02/19 07:57:57;;;;;;;29.48;3.97;;;;;;;8.11;100.00;102278.09;5023435;28;20037;-43
2023/02/19 08:00:22;;;;;;;30.80;3.90;;;;;;;8.17;100.00;102289.28;5022543;28;20045;-43
2023/02/19 08:02:59;;;;;;;25.90;4.15;;;;;;;8.16;100.00;102280.34;5021340;28;20048;-44
2023/02/19 08:05:26;;;;;;;34.27;4.03;;;;;;;8.17;100.00;102279.38;5020612;28;20033;-44
2023/02/19 08:07:51;;;;;;;24.48;3.97;;;;;;;8.14;100.00;102282.34;5021328;28;20291;-42
2023/02/19 08:13:21;;;;;;;29.58;4.20;;;;;;;8.16;100.00;102280.34;5022078;28;20586;-45
2023/02/19 08:15:49;;;;;;;23.60;4.03;;;;;;;8.20;100.00;102286.31;5018180;28;20036;-44
2023/02/19 08:18:15;;;;;;;39.45;4.20;;;;;;;8.25;100.00;102284.94;5016343;28;20109;-45
2023/02/19 08:20:41;;;;;;;36.22;3.92;;;;;;;8.25;100.00;102289.47;5024185;28;20048;-45
2023/02/19 08:23:06;;;;;;;35.33;4.45;;;;;;;8.25;100.00;102281.41;5020206;28;20029;-44
2023/02/19 08:25:32;;;;;;;19.00;3.30;;;;;;;8.26;100.00;102275.06;5014766;28;20025;-45
2023/02/19 08:27:59;;;;;;;27.48;4.05;;;;;;;8.25;100.00;102278.72;5024860;28;20169;-46
2023/02/19 08:30:25;;;;;;;34.50;3.47;;;;;;;8.24;100.00;102285.94;5014356;28;20480;-45
2023/02/19 08:32:51;;;;;;;34.88;4.65;;;;;;;8.24;100.00;102277.00;5008807;28;20107;-43
2023/02/19 08:35:16;;;;;;;32.55;3.28;;;;;;;8.25;100.00;102281.41;5023353;28;20540;-44
2023/02/19 08:37:41;;;;;;;38.40;5.13;;;;;;;8.29;100.00;102280.16;5015036;28;20030;-44
2023/02/19 08:40:07;;;;;;;28.38;4.85;;;;;;;8.27;100.00;102276.78;5027956;28;20115;-44
2023/02/19 08:42:32;;;;;;;36.95;4.80;;;;;;;8.27;100.00;102290.19;5026378;28;20095;-46
2023/02/19 08:44:58;;;;;;;28.35;4.22;;;;;;;8.32;100.00;102298.66;5027618;28;20484;-44
2023/02/19 08:47:23;;;;;;;33.85;4.40;;;;;;;8.35;100.00;102280.50;5021369;28;20536;-47
2023/02/19 08:49:48;;;;;;;29.23;4.55;;;;;;;8.37;100.00;102283.03;5010803;28;20229;-43
2023/02/19 08:52:14;;;;;;;27.58;4.38;;;;;;;8.39;100.00;102280.22;5009738;28;20034;-45
2023/02/19 08:54:39;;;;;;;24.80;3.75;;;;;;;8.39;100.00;102291.84;5027539;28;20061;-45
2023/02/19 08:57:04;;;;;;;21.05;3.15;;;;;;;8.41;100.00;102281.81;5022512;28;20540;-45
2023/02/19 08:59:30;;;;;;;33.65;3.60;;;;;;;8.42;100.00;102266.56;5020222;28;20487;-43
2023/02/19 09:01:57;;;;;;;24.95;4.03;;;;;;;8.46;100.00;102265.34;5024224;28;20388;-45
2023/02/19 09:04:22;;;;;;;34.38;3.22;;;;;;;8.61;100.00;102277.41;5030336;28;20026;-46
2023/02/19 09:06:48;;;;;;;34.92;5.38;;;;;;;8.71;100.00;102298.91;5019233;28;20029;-44
2023/02/19 09:09:13;;;;;;;29.80;4.68;;;;;;;8.81;100.00;102297.13;5013838;28;20505;-43
2023/02/19 09:11:38;;;;;;;26.45;2.88;;;;;;;8.93;100.00;102304.13;5014367;28;20327;-46
2023/02/19 09:14:06;;;;;;;23.92;3.45;;;;;;;9.00;100.00;102301.72;5019707;28;20413;-43
2023/02/19 09:16:35;;;;;;;25.65;3.20;;;;;;;9.05;100.00;102293.25;5022481;28;20065;-43
2023/02/19 09:19:00;;;;;;;19.23;2.53;;;;;;;9.15;100.00;102300.38;5012958;28;20026;-45
2023/02/19 09:21:26;;;;;;;34.85;3.63;;;;;;;9.29;100.00;102307.19;5027140;28;20025;-44
2023/02/19 09:23:51;;;;;;;17.90;3.28;;;;;;;9.46;100.00;102319.13;5014523;28;20030;-44
2023/02/19 09:26:16;;;;;;;27.20;2.85;;;;;;;9.56;100.00;102322.69;5019162;28;20021;-45
2023/02/19 09:28:42;;;;;;;20.73;2.85;;;;;;;9.57;100.00;102323.53;5033405;28;20064;-43
2023/02/19 09:31:13;;;;;;;25.25;3.35;;;;;;;9.44;100.00;102321.94;5032910;28;20492;-44
2023/02/19 09:33:46;;;;;;;23.13;2.38;;;;;;;9.41;100.00;102338.34;5033422;28;20153;-46
2023/02/19 09:36:12;;;;;;;26.25;2.67;;;;;;;9.30;100.00;102335.78;5032544;28;20065;-43
2023/02/19 09:38:38;;;;;;;19.08;2.88;;;;;;;9.19;100.00;102334.03;5021176;28;20033;-44
2023/02/19 09:41:13;;;;;;;20.13;2.92;;;;;;;9.07;100.00;102351.22;5022578;28;20045;-43
2023/02/19 09:43:38;;;;;;;14.13;2.85;;;;;;;9.00;100.00;102352.75;5021733;28;20072;-43
2023/02/19 09:46:11;;;;;;;19.38;2.47;;;;;;;8.85;100.00;102352.28;5020074;28;20069;-45
2023/02/19 09:48:36;;;;;;;17.70;3.10;;;;;;;8.85;100.00;102368.38;5018912;28;20030;-44
2023/02/19 09:51:02;;;;;;;14.98;2.60;;;;;;;8.81;100.00;102376.81;5022962;28;20030;-44
2023/02/19 09:53:38;;;;;;;14.75;2.38;;;;;;;8.81;100.00;102376.81;5021921;28;20033;-44
2023/02/19 09:56:04;;;;;;;25.92;2.38;;;;;;;8.77;100.00;102381.63;5018872;28;20042;-44
2023/02/19 09:58:33;;;;;;;17.95;2.40;;;;;;;8.72;100.00;102376.63;5032498;28;20026;-45
2023/02/19 10:01:01;;;;;;;11.32;1.80;;;;;;;8.75;100.00;102372.84;5031732;28;20101;-44
2023/02/19 10:03:33;;;;;;;9.02;1.67;;;;;;;8.73;100.00;102381.00;5030781;28;20021;-44
2023/02/19 10:06:04;;;;;;;19.98;2.40;;;;;;;8.68;100.00;102374.34;5029992;28;20347;-45
2023/02/19 10:08:32;;;;;;;13.25;2.13;;;;;;;8.68;100.00;102383.25;5031921;28;20029;-45
2023/02/19 10:10:58;;;;;;;14.55;2.20;;;;;;;8.68;100.00;102385.94;5031555;28;20045;-45
2023/02/19 10:13:35;;;;;;;12.23;2.15;;;;;;;8.67;100.00;102386.91;5032622;28;20465;-45
2023/02/19 10:16:03;;;;;;;13.27;2.00;;;;;;;8.67;100.00;102391.44;5028185;28;20021;-46
2023/02/19 10:18:35;;;;;;;11.88;1.60;;;;;;;8.69;100.00;102398.38;5026313;28;20025;-46
2023/02/19 10:21:00;;;;;;;16.15;2.20;;;;;;;8.75;100.00;102415.78;5031143;28;20026;-44
2023/02/19 10:23:26;;;;;;;16.10;1.95;;;;;;;8.66;100.00;102416.56;5032153;28;20067;-44
2023/02/19 10:25:56;;;;;;;15.52;2.25;;;;;;;8.69;100.00;102417.19;5032358;28;20060;-47
2023/02/19 10:28:24;;;;;;;12.95;2.00;;;;;;;8.68;100.00;102414.59;5029864;28;20389;-44
2023/02/19 10:30:55;;;;;;;10.98;1.63;;;;;;;8.72;100.00;102421.44;5032261;28;20025;-45
2023/02/19 10:33:21;;;;;;;18.67;2.53;;;;;;;8.70;100.00;102426.06;5032190;28;20087;-46
2023/02/19 10:35:54;;;;;;;12.77;1.90;;;;;;;8.75;100.00;102423.84;5026291;28;20032;-45
2023/02/19 10:38:27;;;;;;;13.65;2.03;;;;;;;8.74;100.00;102424.81;5026654;28;20027;-46
2023/02/19 10:41:01;;;;;;;20.20;2.35;;;;;;;8.81;100.00;102428.69;5016805;28;20468;-45
2023/02/19 10:43:32;;;;;;;15.95;2.38;;;;;;;8.89;100.00;102433.41;5030585;28;20416;-48
2023/02/19 10:46:19;;;;;;;14.05;2.08;;;;;;;8.91;100.00;102442.19;5030719;28;20455;-43
2023/02/19 10:48:50;;;;;;;20.05;3.03;;;;;;;8.97;100.00;102431.75;5032394;28;20036;-44
2023/02/19 10:51:20;;;;;;;16.95;1.88;;;;;;;9.04;100.00;102432.06;5030935;28;20029;-45
2023/02/19 10:53:50;;;;;;;16.25;1.63;;;;;;;9.05;100.00;102422.19;5032315;28;20025;-45
2023/02/19 10:56:27;;;;;;;13.90;2.08;;;;;;;9.01;100.00;102422.44;5031338;28;20025;-44
2023/02/19 10:58:53;;;;;;;13.48;2.70;;;;;;;8.96;100.00;102419.31;5030948;28;20060;-44
2023/02/19 11:01:24;;;;;;;9.27;1.33;;;;;;;8.90;100.00;102422.53;5032411;28;20029;-45
2023/02/19 11:04:11;;;;;;;11.40;1.40;;;;;;;8.84;100.00;102424.88;5032199;28;20453;-45
2023/02/19 11:06:37;;;;;;;13.55;1.35;;;;;;;8.88;100.00;102431.69;5027966;28;20041;-45
2023/02/19 11:09:02;;;;;;;14.27;1.73;;;;;;;8.89;100.00;102434.25;5030643;28;20499;-44
2023/02/19 11:11:36;;;;;;;12.02;1.50;;;;;;;8.88;100.00;102426.34;5032160;28;20036;-45
2023/02/19 11:14:05;;;;;;;11.32;1.83;;;;;;;8.77;100.00;102425.41;5030577;28;20026;-46
2023/02/19 11:16:59;;;;;;;14.35;2.03;;;;;;;8.83;100.00;102424.03;5031672;28;20036;-44
2023/02/19 11:19:35;;;;;;;16.58;2.40;;;;;;;8.91;100.00;102431.44;5013283;28;20117;-45
2023/02/19 11:22:02;;;;;;;15.25;2.05;;;;;;;8.93;100.00;102437.53;5009259;28;20018;-45
2023/02/19 11:24:30;;;;;;;20.83;2.10;;;;;;;8.96;100.00;102440.78;5010357;28;20059;-44
2023/02/19 11:26:56;;;;;;;21.27;2.00;;;;;;;8.97;100.00;102450.53;5010406;28;20041;-46
2023/02/19 11:29:23;;;;;;;14.65;2.03;;;;;;;8.88;100.00;102443.28;5010065;28;20072;-47
2023/02/19 11:31:49;;;;;;;10.40;1.70;;;;;;;8.89;100.00;102449.50;5010745;28;20041;-45
2023/02/19 11:34:20;;;;;;;14.63;1.60;;;;;;;8.84;100.00;102443.69;5009917;28;20050;-45
2023/02/19 11:36:46;;;;;;;14.60;2.70;;;;;;;8.82;100.00;102442.94;5011979;28;20092;-44
2023/02/19 11:39:18;;;;;;;14.85;1.70;;;;;;;8.78;100.00;102442.38;5010436;28;20489;-46
2023/02/19 11:42:18;;;;;;;8.30;1.40;;;;;;;8.79;100.00;102442.25;5011433;28;20033;-46
2023/02/19 11:44:55;;;;;;;5.90;1.40;;;;;;;8.83;100.00;102442.84;5011413;28;20034;-45
2023/02/19 11:47:57;;;;;;;9.48;1.63;;;;;;;8.99;100.00;102440.53;5011462;28;20036;-45
2023/02/19 11:50:30;;;;;;;5.60;1.50;;;;;;;9.09;100.00;102445.13;5011552;28;20026;-45
2023/02/19 11:53:05;;;;;;;4.90;1.52;;;;;;;9.28;100.00;102450.56;5009388;28;20026;-47